sensor_id;sensor_type;location;lat;lon;timestamp;pressure;altitude;pressure_sealevel;temperature;humidity
38054;BME280;23859;50.672;7.164;2023-05-24T00:00:42;47292.84;;;-140.95;53.62
38054;BME280;23859;50.672;7.164;2023-05-24T00:03:08;47369.41;;;-140.95;51.82
38054;BME280;23859;50.672;7.164;2023-05-24T00:05:34;47389.56;;;-140.95;52.51
38054;BME280;23859;50.672;7.164;2023-05-24T00:08:03;47377.47;;;-140.95;53.17
38054;BME280;23859;50.672;7.164;2023-05-24T00:10:29;47371.44;;;-140.95;53.02
38054;BME280;23859;50.672;7.164;2023-05-24T00:12:55;47375.47;;;-140.95;54.43
38054;BME280;23859;50.672;7.164;2023-05-24T00:15:21;47385.53;;;-140.95;53.90
38054;BME280;23859;50.672;7.164;2023-05-24T00:17:47;47379.50;;;-140.95;54.13
38054;BME280;23859;50.672;7.164;2023-05-24T00:20:13;47395.63;;;-140.95;54.01
38054;BME280;23859;50.672;7.164;2023-05-24T00:22:40;47385.53;;;-140.95;54.71
38054;BME280;23859;50.672;7.164;2023-05-24T00:25:07;47367.41;;;-140.95;53.17
38054;BME280;23859;50.672;7.164;2023-05-24T00:27:33;47377.47;;;-140.95;52.83
38054;BME280;23859;50.672;7.164;2023-05-24T00:30:02;47381.50;;;-140.95;52.45
38054;BME280;23859;50.672;7.164;2023-05-24T00:32:28;47381.50;;;-140.95;53.75
38054;BME280;23859;50.672;7.164;2023-05-24T00:34:54;47389.56;;;-140.95;53.75
38054;BME280;23859;50.672;7.164;2023-05-24T00:37:20;47409.72;;;-140.95;53.49
38054;BME280;23859;50.672;7.164;2023-05-24T00:39:47;47389.56;;;-140.95;53.62
38054;BME280;23859;50.672;7.164;2023-05-24T00:42:13;47401.66;;;-140.95;53.57
38054;BME280;23859;50.672;7.164;2023-05-24T00:44:39;47389.56;;;-140.95;51.43
38054;BME280;23859;50.672;7.164;2023-05-24T00:47:05;47397.63;;;-140.95;52.43
38054;BME280;23859;50.672;7.164;2023-05-24T00:49:32;47393.59;;;-140.95;52.73
38054;BME280;23859;50.672;7.164;2023-05-24T00:51:58;47377.47;;;-140.95;52.57
38054;BME280;23859;50.672;7.164;2023-05-24T00:54:25;47401.66;;;-140.95;51.77
38054;BME280;23859;50.672;7.164;2023-05-24T00:56:52;47385.53;;;-140.95;52.80
38054;BME280;23859;50.672;7.164;2023-05-24T00:59:18;47399.66;;;-140.95;52.00
38054;BME280;23859;50.672;7.164;2023-05-24T01:01:44;47391.59;;;-140.95;52.72
38054;BME280;23859;50.672;7.164;2023-05-24T01:04:12;47393.59;;;-140.95;52.59
38054;BME280;23859;50.672;7.164;2023-05-24T01:07:02;47310.97;;;-140.95;52.30
38054;BME280;23859;50.672;7.164;2023-05-24T01:15:07;47393.59;;;-140.95;53.54
38054;BME280;23859;50.672;7.164;2023-05-24T01:17:53;47409.72;;;-140.95;52.75
38054;BME280;23859;50.672;7.164;2023-05-24T01:20:28;47399.66;;;-140.95;53.03
38054;BME280;23859;50.672;7.164;2023-05-24T01:23:06;47407.72;;;-140.95;52.92
38054;BME280;23859;50.672;7.164;2023-05-24T01:25:48;47413.75;;;-140.95;53.32
38054;BME280;23859;50.672;7.164;2023-05-24T01:28:19;47448.00;;;-140.95;52.98
38054;BME280;23859;50.672;7.164;2023-05-24T01:30:45;47405.69;;;-140.95;53.01
38054;BME280;23859;50.672;7.164;2023-05-24T01:33:12;47429.88;;;-140.95;54.18
38054;BME280;23859;50.672;7.164;2023-05-24T01:35:38;47433.91;;;-140.95;53.29
38054;BME280;23859;50.672;7.164;2023-05-24T01:38:07;47433.91;;;-140.95;53.63
38054;BME280;23859;50.672;7.164;2023-05-24T01:40:37;47431.88;;;-140.95;54.70
38054;BME280;23859;50.672;7.164;2023-05-24T01:48:33;47429.88;;;-140.95;54.05
38054;BME280;23859;50.672;7.164;2023-05-24T01:51:06;47437.94;;;-140.95;54.99
38054;BME280;23859;50.672;7.164;2023-05-24T01:53:34;47433.91;;;-140.95;53.79
38054;BME280;23859;50.672;7.164;2023-05-24T01:56:05;47433.91;;;-140.95;54.28
38054;BME280;23859;50.672;7.164;2023-05-24T01:58:32;47425.84;;;-140.95;53.75
38054;BME280;23859;50.672;7.164;2023-05-24T02:00:59;47429.88;;;-140.95;55.45
38054;BME280;23859;50.672;7.164;2023-05-24T02:03:25;47433.91;;;-140.95;54.80
38054;BME280;23859;50.672;7.164;2023-05-24T02:05:51;47443.97;;;-140.95;54.81
38054;BME280;23859;50.672;7.164;2023-05-24T02:08:18;47448.00;;;-140.95;56.19
38054;BME280;23859;50.672;7.164;2023-05-24T02:10:44;47415.78;;;-140.95;55.71
38054;BME280;23859;50.672;7.164;2023-05-24T02:13:10;47425.84;;;-140.95;55.21
38054;BME280;23859;50.672;7.164;2023-05-24T02:15:36;47433.91;;;-140.95;54.57
38054;BME280;23859;50.672;7.164;2023-05-24T02:18:02;47421.81;;;-140.95;54.79
38054;BME280;23859;50.672;7.164;2023-05-24T02:20:29;47417.78;;;-140.95;54.19
38054;BME280;23859;50.672;7.164;2023-05-24T02:23:02;47429.88;;;-140.95;53.85
38054;BME280;23859;50.672;7.164;2023-05-24T02:25:28;47429.88;;;-140.95;55.86
38054;BME280;23859;50.672;7.164;2023-05-24T02:27:56;47427.84;;;-140.95;55.23
38054;BME280;23859;50.672;7.164;2023-05-24T02:30:23;47446.00;;;-140.95;56.60
38054;BME280;23859;50.672;7.164;2023-05-24T02:32:49;47468.16;;;-140.95;56.85
38054;BME280;23859;50.672;7.164;2023-05-24T02:35:15;47448.00;;;-140.95;57.09
38054;BME280;23859;50.672;7.164;2023-05-24T02:37:41;47474.22;;;-140.95;56.75
38054;BME280;23859;50.672;7.164;2023-05-24T02:40:08;47458.09;;;-140.95;57.14
38054;BME280;23859;50.672;7.164;2023-05-24T02:42:35;47458.09;;;-140.95;57.34
38054;BME280;23859;50.672;7.164;2023-05-24T02:45:01;47472.19;;;-140.95;57.76
38054;BME280;23859;50.672;7.164;2023-05-24T02:47:27;47484.28;;;-140.95;60.24
38054;BME280;23859;50.672;7.164;2023-05-24T02:49:53;47522.56;;;-140.95;60.03
38054;BME280;23859;50.672;7.164;2023-05-24T02:52:20;47490.31;;;-140.95;60.68
38054;BME280;23859;50.672;7.164;2023-05-24T02:54:48;47506.44;;;-140.95;61.04
38054;BME280;23859;50.672;7.164;2023-05-24T02:57:14;47506.44;;;-140.95;60.89
38054;BME280;23859;50.672;7.164;2023-05-24T02:59:41;47514.50;;;-140.95;61.95
38054;BME280;23859;50.672;7.164;2023-05-24T03:02:08;47514.50;;;-140.95;61.64
38054;BME280;23859;50.672;7.164;2023-05-24T03:04:34;47506.44;;;-140.95;62.13
38054;BME280;23859;50.672;7.164;2023-05-24T03:07:00;47500.41;;;-140.95;62.20
38054;BME280;23859;50.672;7.164;2023-05-24T03:09:28;47526.59;;;-140.95;62.63
38054;BME280;23859;50.672;7.164;2023-05-24T03:11:54;47524.59;;;-140.95;62.81
38054;BME280;23859;50.672;7.164;2023-05-24T03:14:20;47506.44;;;-140.95;62.93
38054;BME280;23859;50.672;7.164;2023-05-24T03:16:49;47522.56;;;-140.95;64.10
38054;BME280;23859;50.672;7.164;2023-05-24T03:19:15;47520.56;;;-140.95;62.70
38054;BME280;23859;50.672;7.164;2023-05-24T03:21:42;47514.50;;;-140.95;63.39
38054;BME280;23859;50.672;7.164;2023-05-24T03:24:08;47516.53;;;-140.95;63.10
38054;BME280;23859;50.672;7.164;2023-05-24T03:26:34;47514.50;;;-140.95;64.28
38054;BME280;23859;50.672;7.164;2023-05-24T03:29:01;47546.75;;;-140.95;64.05
38054;BME280;23859;50.672;7.164;2023-05-24T03:31:27;47538.69;;;-140.95;64.54
38054;BME280;23859;50.672;7.164;2023-05-24T03:33:53;47534.66;;;-140.95;65.13
38054;BME280;23859;50.672;7.164;2023-05-24T03:36:20;47542.72;;;-140.95;65.10
38054;BME280;23859;50.672;7.164;2023-05-24T03:38:46;47542.72;;;-140.95;65.43
38054;BME280;23859;50.672;7.164;2023-05-24T03:41:12;47534.66;;;-140.95;66.19
38054;BME280;23859;50.672;7.164;2023-05-24T03:43:38;47450.03;;;-140.95;64.99
38054;BME280;23859;50.672;7.164;2023-05-24T03:46:04;47522.56;;;-140.95;66.25
38054;BME280;23859;50.672;7.164;2023-05-24T03:48:30;47530.63;;;-140.95;66.89
38054;BME280;23859;50.672;7.164;2023-05-24T03:50:56;47526.59;;;-140.95;66.57
38054;BME280;23859;50.672;7.164;2023-05-24T03:53:22;47526.59;;;-140.95;66.70
38054;BME280;23859;50.672;7.164;2023-05-24T03:55:48;47526.59;;;-140.95;66.75
38054;BME280;23859;50.672;7.164;2023-05-24T03:58:14;47532.66;;;-140.95;65.64
38054;BME280;23859;50.672;7.164;2023-05-24T04:00:40;47526.59;;;-140.95;65.98
38054;BME280;23859;50.672;7.164;2023-05-24T04:03:06;47514.50;;;-140.95;64.27
38054;BME280;23859;50.672;7.164;2023-05-24T04:05:33;47510.47;;;-140.95;63.23
38054;BME280;23859;50.672;7.164;2023-05-24T04:08:00;47542.72;;;-140.95;64.22
38054;BME280;23859;50.672;7.164;2023-05-24T04:10:26;47546.75;;;-140.95;65.13
38054;BME280;23859;50.672;7.164;2023-05-24T04:12:52;47429.88;;;-140.95;66.08
38054;BME280;23859;50.672;7.164;2023-05-24T04:15:18;47552.78;;;-140.95;65.47
38054;BME280;23859;50.672;7.164;2023-05-24T04:17:45;47542.72;;;-140.95;65.77
38054;BME280;23859;50.672;7.164;2023-05-24T04:20:12;47542.72;;;-140.95;67.05
38054;BME280;23859;50.672;7.164;2023-05-24T04:22:39;47512.50;;;-140.95;66.89
38054;BME280;23859;50.672;7.164;2023-05-24T04:25:05;47514.50;;;-140.95;66.40
38054;BME280;23859;50.672;7.164;2023-05-24T04:27:32;47520.56;;;-140.95;66.70
38054;BME280;23859;50.672;7.164;2023-05-24T04:29:58;47534.66;;;-140.95;66.28
38054;BME280;23859;50.672;7.164;2023-05-24T04:32:24;47518.53;;;-140.95;65.69
38054;BME280;23859;50.672;7.164;2023-05-24T04:34:51;47494.34;;;-140.95;65.43
38054;BME280;23859;50.672;7.164;2023-05-24T04:37:17;47385.53;;;-140.95;65.77
38054;BME280;23859;50.672;7.164;2023-05-24T04:39:44;47510.47;;;-140.95;65.08
38054;BME280;23859;50.672;7.164;2023-05-24T04:42:11;47514.50;;;-140.95;63.38
38054;BME280;23859;50.672;7.164;2023-05-24T04:44:39;47506.44;;;-140.95;63.61
38054;BME280;23859;50.672;7.164;2023-05-24T04:47:06;47506.44;;;-140.95;62.75
38054;BME280;23859;50.672;7.164;2023-05-24T04:49:32;47496.38;;;-140.95;62.50
38054;BME280;23859;50.672;7.164;2023-05-24T04:51:58;47498.38;;;-140.95;61.88
38054;BME280;23859;50.672;7.164;2023-05-24T04:54:24;47482.25;;;-140.95;61.04
38054;BME280;23859;50.672;7.164;2023-05-24T04:56:50;47490.31;;;-140.95;60.44
38054;BME280;23859;50.672;7.164;2023-05-24T04:59:17;47486.28;;;-140.95;61.71
38054;BME280;23859;50.672;7.164;2023-05-24T05:01:43;47494.34;;;-140.95;62.34
38054;BME280;23859;50.672;7.164;2023-05-24T05:04:09;47468.16;;;-140.95;61.44
38054;BME280;23859;50.672;7.164;2023-05-24T05:06:35;47492.34;;;-140.95;61.18
38054;BME280;23859;50.672;7.164;2023-05-24T05:09:05;47460.09;;;-140.95;60.01
38054;BME280;23859;50.672;7.164;2023-05-24T05:11:34;47476.22;;;-140.95;60.10
38054;BME280;23859;50.672;7.164;2023-05-24T05:14:00;47454.06;;;-140.95;60.42
38054;BME280;23859;50.672;7.164;2023-05-24T05:16:26;47480.25;;;-140.95;61.21
38054;BME280;23859;50.672;7.164;2023-05-24T05:18:52;47466.16;;;-140.95;59.88
38054;BME280;23859;50.672;7.164;2023-05-24T05:21:18;47452.03;;;-140.95;61.14
38054;BME280;23859;50.672;7.164;2023-05-24T05:23:45;47431.88;;;-140.95;61.14
38054;BME280;23859;50.672;7.164;2023-05-24T05:26:11;47441.97;;;-140.95;60.22
38054;BME280;23859;50.672;7.164;2023-05-24T05:28:37;47429.88;;;-140.95;60.23
38054;BME280;23859;50.672;7.164;2023-05-24T05:31:03;47431.88;;;-140.95;59.49
38054;BME280;23859;50.672;7.164;2023-05-24T05:33:32;47448.00;;;-140.95;58.67
38054;BME280;23859;50.672;7.164;2023-05-24T05:35:58;47421.81;;;-140.95;58.76
38054;BME280;23859;50.672;7.164;2023-05-24T05:38:24;47429.88;;;-140.95;58.03
38054;BME280;23859;50.672;7.164;2023-05-24T05:40:51;47405.69;;;-140.95;57.37
38054;BME280;23859;50.672;7.164;2023-05-24T05:43:17;47393.59;;;-140.95;55.32
38054;BME280;23859;50.672;7.164;2023-05-24T05:45:43;47381.50;;;-140.95;56.14
38054;BME280;23859;50.672;7.164;2023-05-24T05:48:09;47413.75;;;-140.95;56.76
38054;BME280;23859;50.672;7.164;2023-05-24T05:50:35;47395.63;;;-140.95;57.38
38054;BME280;23859;50.672;7.164;2023-05-24T05:53:01;47437.94;;;-140.95;58.52
38054;BME280;23859;50.672;7.164;2023-05-24T05:55:27;47401.66;;;-140.95;57.13
38054;BME280;23859;50.672;7.164;2023-05-24T05:57:53;47377.47;;;-140.95;56.65
38054;BME280;23859;50.672;7.164;2023-05-24T06:00:20;47367.41;;;-140.95;55.06
38054;BME280;23859;50.672;7.164;2023-05-24T06:02:47;47369.41;;;-140.95;53.83
38054;BME280;23859;50.672;7.164;2023-05-24T06:05:13;47351.28;;;-140.95;52.63
38054;BME280;23859;50.672;7.164;2023-05-24T06:07:39;47355.31;;;-140.95;54.38
38054;BME280;23859;50.672;7.164;2023-05-24T06:10:05;47353.31;;;-140.95;53.53
38054;BME280;23859;50.672;7.164;2023-05-24T06:12:31;47349.28;;;-140.95;53.35
38054;BME280;23859;50.672;7.164;2023-05-24T06:14:58;47345.25;;;-140.95;52.41
38054;BME280;23859;50.672;7.164;2023-05-24T06:17:24;47357.34;;;-140.95;51.21
38054;BME280;23859;50.672;7.164;2023-05-24T06:19:51;47341.22;;;-140.95;51.83
38054;BME280;23859;50.672;7.164;2023-05-24T06:22:18;47349.28;;;-140.95;52.13
38054;BME280;23859;50.672;7.164;2023-05-24T06:24:45;47349.28;;;-140.95;52.02
38054;BME280;23859;50.672;7.164;2023-05-24T06:27:11;47323.06;;;-140.95;52.21
38054;BME280;23859;50.672;7.164;2023-05-24T06:29:37;47321.06;;;-140.95;51.14
38054;BME280;23859;50.672;7.164;2023-05-24T06:32:04;47325.09;;;-140.95;52.15
38054;BME280;23859;50.672;7.164;2023-05-24T06:34:30;47325.09;;;-140.95;51.47
38054;BME280;23859;50.672;7.164;2023-05-24T06:36:56;47313.00;;;-140.95;51.01
38054;BME280;23859;50.672;7.164;2023-05-24T06:39:23;47333.16;;;-140.95;50.88
38054;BME280;23859;50.672;7.164;2023-05-24T06:41:50;47325.09;;;-140.95;50.55
38054;BME280;23859;50.672;7.164;2023-05-24T06:44:16;47327.09;;;-140.95;50.64
38054;BME280;23859;50.672;7.164;2023-05-24T06:46:42;47333.16;;;-140.95;49.66
38054;BME280;23859;50.672;7.164;2023-05-24T06:49:08;47313.00;;;-140.95;49.68
38054;BME280;23859;50.672;7.164;2023-05-24T06:51:34;47296.88;;;-140.95;49.24
38054;BME280;23859;50.672;7.164;2023-05-24T06:54:01;47296.88;;;-140.95;48.51
38054;BME280;23859;50.672;7.164;2023-05-24T06:56:27;47188.06;;;-140.95;48.46
38054;BME280;23859;50.672;7.164;2023-05-24T06:58:54;47296.88;;;-140.95;48.92
38054;BME280;23859;50.672;7.164;2023-05-24T07:01:20;47288.81;;;-140.95;47.90
38054;BME280;23859;50.672;7.164;2023-05-24T07:03:47;47310.97;;;-140.95;48.76
38054;BME280;23859;50.672;7.164;2023-05-24T07:06:13;47300.91;;;-140.95;49.54
38054;BME280;23859;50.672;7.164;2023-05-24T07:08:40;47296.88;;;-140.95;48.49
38054;BME280;23859;50.672;7.164;2023-05-24T07:11:09;47308.97;;;-140.95;47.16
38054;BME280;23859;50.672;7.164;2023-05-24T07:13:35;47308.97;;;-140.95;47.51
38054;BME280;23859;50.672;7.164;2023-05-24T07:16:01;47264.63;;;-140.95;46.67
38054;BME280;23859;50.672;7.164;2023-05-24T07:18:28;47256.56;;;-140.95;44.42
38054;BME280;23859;50.672;7.164;2023-05-24T07:20:54;47256.56;;;-140.95;45.88
38054;BME280;23859;50.672;7.164;2023-05-24T07:23:20;47202.16;;;-140.95;43.79
38054;BME280;23859;50.672;7.164;2023-05-24T07:25:46;47131.66;;;-140.95;38.83
38054;BME280;23859;50.672;7.164;2023-05-24T07:28:12;47095.38;;;-140.95;35.60
38054;BME280;23859;50.672;7.164;2023-05-24T07:30:44;47111.50;;;-140.95;38.04
38054;BME280;23859;50.672;7.164;2023-05-24T07:33:11;47109.47;;;-140.95;37.17
38054;BME280;23859;50.672;7.164;2023-05-24T07:35:37;47135.69;;;-140.95;36.54
38054;BME280;23859;50.672;7.164;2023-05-24T07:38:04;47137.69;;;-140.95;37.90
38054;BME280;23859;50.672;7.164;2023-05-24T07:40:30;47127.63;;;-140.95;37.73
38054;BME280;23859;50.672;7.164;2023-05-24T07:42:56;47081.28;;;-140.95;34.91
38054;BME280;23859;50.672;7.164;2023-05-24T07:45:22;47099.41;;;-140.95;34.22
38054;BME280;23859;50.672;7.164;2023-05-24T07:47:49;47143.75;;;-140.95;36.52
38054;BME280;23859;50.672;7.164;2023-05-24T07:50:15;47145.75;;;-140.95;37.07
38054;BME280;23859;50.672;7.164;2023-05-24T07:52:41;47192.09;;;-140.95;38.28
38054;BME280;23859;50.672;7.164;2023-05-24T07:55:08;47262.63;;;-140.95;41.75
38054;BME280;23859;50.672;7.164;2023-05-24T07:57:34;47264.63;;;-140.95;44.65
38054;BME280;23859;50.672;7.164;2023-05-24T08:00:00;47264.63;;;-140.95;44.40
38054;BME280;23859;50.672;7.164;2023-05-24T08:02:33;47240.47;;;-140.95;42.99
38054;BME280;23859;50.672;7.164;2023-05-24T08:04:59;47248.50;;;-140.95;44.23
38054;BME280;23859;50.672;7.164;2023-05-24T08:07:26;47232.41;;;-140.95;43.39
38054;BME280;23859;50.672;7.164;2023-05-24T08:09:52;47240.47;;;-140.95;42.05
38054;BME280;23859;50.672;7.164;2023-05-24T08:12:18;47226.34;;;-140.95;41.93
38054;BME280;23859;50.672;7.164;2023-05-24T08:14:44;47194.13;;;-140.95;40.24
38054;BME280;23859;50.672;7.164;2023-05-24T08:17:10;47182.03;;;-140.95;38.77
38054;BME280;23859;50.672;7.164;2023-05-24T08:19:36;47167.91;;;-140.95;37.26
38054;BME280;23859;50.672;7.164;2023-05-24T08:22:02;47163.88;;;-140.95;37.11
38054;BME280;23859;50.672;7.164;2023-05-24T08:24:30;47151.78;;;-140.95;36.06
38054;BME280;23859;50.672;7.164;2023-05-24T08:26:57;47143.75;;;-140.95;35.35
38054;BME280;23859;50.672;7.164;2023-05-24T08:29:23;47125.59;;;-140.95;35.46
38054;BME280;23859;50.672;7.164;2023-05-24T08:31:49;47099.41;;;-140.95;32.87
38054;BME280;23859;50.672;7.164;2023-05-24T08:34:15;47131.66;;;-140.95;33.37
38054;BME280;23859;50.672;7.164;2023-05-24T08:36:41;47129.63;;;-140.95;34.72
38054;BME280;23859;50.672;7.164;2023-05-24T08:39:08;47151.78;;;-140.95;35.68
38054;BME280;23859;50.672;7.164;2023-05-24T08:41:35;47188.06;;;-140.95;36.69
38054;BME280;23859;50.672;7.164;2023-05-24T08:44:06;47196.13;;;-140.95;36.82
38054;BME280;23859;50.672;7.164;2023-05-24T08:46:36;47171.94;;;-140.95;36.16
38054;BME280;23859;50.672;7.164;2023-05-24T08:49:03;47184.03;;;-140.95;37.07
38054;BME280;23859;50.672;7.164;2023-05-24T08:51:30;47222.31;;;-140.95;39.82
38054;BME280;23859;50.672;7.164;2023-05-24T08:54:00;47184.03;;;-140.95;38.80
38054;BME280;23859;50.672;7.164;2023-05-24T08:56:26;47196.13;;;-140.95;36.87
38054;BME280;23859;50.672;7.164;2023-05-24T08:58:54;47202.16;;;-140.95;37.80
38054;BME280;23859;50.672;7.164;2023-05-24T09:01:21;47200.16;;;-140.95;37.44
38054;BME280;23859;50.672;7.164;2023-05-24T09:03:50;47175.97;;;-140.95;38.23
38054;BME280;23859;50.672;7.164;2023-05-24T09:06:18;47175.97;;;-140.95;36.87
38054;BME280;23859;50.672;7.164;2023-05-24T09:08:44;47186.06;;;-140.95;36.69
38054;BME280;23859;50.672;7.164;2023-05-24T09:11:10;47163.88;;;-140.95;36.05
38054;BME280;23859;50.672;7.164;2023-05-24T09:13:36;47105.44;;;-140.95;34.65
38054;BME280;23859;50.672;7.164;2023-05-24T09:16:04;47141.72;;;-140.95;36.30
38054;BME280;23859;50.672;7.164;2023-05-24T09:18:30;47135.69;;;-140.95;33.40
38054;BME280;23859;50.672;7.164;2023-05-24T09:20:56;47145.75;;;-140.95;36.34
38054;BME280;23859;50.672;7.164;2023-05-24T09:23:24;47161.88;;;-140.95;35.62
38054;BME280;23859;50.672;7.164;2023-05-24T09:25:51;47151.78;;;-140.95;37.09
38054;BME280;23859;50.672;7.164;2023-05-24T09:28:18;47188.06;;;-140.95;37.60
38054;BME280;23859;50.672;7.164;2023-05-24T09:30:57;47208.22;;;-140.95;39.15
38054;BME280;23859;50.672;7.164;2023-05-24T09:33:27;47167.91;;;-140.95;38.08
38054;BME280;23859;50.672;7.164;2023-05-24T09:35:57;47171.94;;;-140.95;38.93
38054;BME280;23859;50.672;7.164;2023-05-24T09:38:23;47190.09;;;-140.95;40.21
38054;BME280;23859;50.672;7.164;2023-05-24T09:41:03;47178.00;;;-140.95;37.41
38054;BME280;23859;50.672;7.164;2023-05-24T09:43:31;47171.94;;;-140.95;39.02
38054;BME280;23859;50.672;7.164;2023-05-24T09:46:02;47175.97;;;-140.95;40.25
38054;BME280;23859;50.672;7.164;2023-05-24T09:48:28;47175.97;;;-140.95;38.77
38054;BME280;23859;50.672;7.164;2023-05-24T09:51:13;47198.13;;;-140.95;39.57
38054;BME280;23859;50.672;7.164;2023-05-24T09:53:44;47200.16;;;-140.95;39.25
38054;BME280;23859;50.672;7.164;2023-05-24T09:56:12;47226.34;;;-140.95;39.92
38054;BME280;23859;50.672;7.164;2023-05-24T09:58:39;47208.22;;;-140.95;39.81
38054;BME280;23859;50.672;7.164;2023-05-24T10:01:08;47192.09;;;-140.95;37.80
38054;BME280;23859;50.672;7.164;2023-05-24T10:03:35;47202.16;;;-140.95;38.20
38054;BME280;23859;50.672;7.164;2023-05-24T10:06:04;47186.06;;;-140.95;39.42
38054;BME280;23859;50.672;7.164;2023-05-24T10:08:33;47178.00;;;-140.95;38.86
38054;BME280;23859;50.672;7.164;2023-05-24T10:11:02;47169.94;;;-140.95;37.04
38054;BME280;23859;50.672;7.164;2023-05-24T10:13:32;47157.84;;;-140.95;35.84
38054;BME280;23859;50.672;7.164;2023-05-24T10:16:01;47178.00;;;-140.95;36.53
38054;BME280;23859;50.672;7.164;2023-05-24T10:18:28;47178.00;;;-140.95;40.48
38054;BME280;23859;50.672;7.164;2023-05-24T10:20:55;47153.81;;;-140.95;37.00
38054;BME280;23859;50.672;7.164;2023-05-24T10:23:25;47151.78;;;-140.95;36.39
38054;BME280;23859;50.672;7.164;2023-05-24T10:26:13;47147.75;;;-140.95;35.22
38054;BME280;23859;50.672;7.164;2023-05-24T10:28:46;47145.75;;;-140.95;36.47
38054;BME280;23859;50.672;7.164;2023-05-24T10:31:30;47155.81;;;-140.95;37.85
38054;BME280;23859;50.672;7.164;2023-05-24T10:33:59;47151.78;;;-140.95;36.40
38054;BME280;23859;50.672;7.164;2023-05-24T10:36:26;47125.59;;;-140.95;36.14
38054;BME280;23859;50.672;7.164;2023-05-24T10:38:54;47135.69;;;-140.95;34.88
38054;BME280;23859;50.672;7.164;2023-05-24T10:41:20;47147.75;;;-140.95;35.64
38054;BME280;23859;50.672;7.164;2023-05-24T10:43:50;47151.78;;;-140.95;35.14
38054;BME280;23859;50.672;7.164;2023-05-24T10:46:17;47155.81;;;-140.95;35.16
38054;BME280;23859;50.672;7.164;2023-05-24T10:48:59;47161.88;;;-140.95;36.08
38054;BME280;23859;50.672;7.164;2023-05-24T10:51:35;47143.75;;;-140.95;36.25
38054;BME280;23859;50.672;7.164;2023-05-24T10:54:12;47145.75;;;-140.95;36.86
38054;BME280;23859;50.672;7.164;2023-05-24T10:56:43;47143.75;;;-140.95;34.93
38054;BME280;23859;50.672;7.164;2023-05-24T10:59:10;47155.81;;;-140.95;36.34
38054;BME280;23859;50.672;7.164;2023-05-24T11:01:54;47113.50;;;-140.95;36.49
38054;BME280;23859;50.672;7.164;2023-05-24T11:04:21;47103.44;;;-140.95;37.37
38054;BME280;23859;50.672;7.164;2023-05-24T11:06:47;47089.34;;;-140.95;34.73
38054;BME280;23859;50.672;7.164;2023-05-24T11:09:15;47105.44;;;-140.95;34.74
38054;BME280;23859;50.672;7.164;2023-05-24T11:11:46;47163.88;;;-140.95;35.22
38054;BME280;23859;50.672;7.164;2023-05-24T11:14:18;47153.81;;;-140.95;36.51
38054;BME280;23859;50.672;7.164;2023-05-24T11:16:48;47165.91;;;-140.95;36.60
38054;BME280;23859;50.672;7.164;2023-05-24T11:19:24;47143.75;;;-140.95;36.47
38054;BME280;23859;50.672;7.164;2023-05-24T11:21:56;47161.88;;;-140.95;37.96
38054;BME280;23859;50.672;7.164;2023-05-24T11:24:26;47149.78;;;-140.95;35.37
38054;BME280;23859;50.672;7.164;2023-05-24T11:26:54;47133.66;;;-140.95;35.18
38054;BME280;23859;50.672;7.164;2023-05-24T11:29:22;47067.16;;;-140.95;34.24
38054;BME280;23859;50.672;7.164;2023-05-24T11:34:18;46966.41;;;-140.95;30.11
38054;BME280;23859;50.672;7.164;2023-05-24T11:36:45;46974.47;;;-140.95;28.73
38054;BME280;23859;50.672;7.164;2023-05-24T11:39:12;46934.19;;;-140.95;27.46
38054;BME280;23859;50.672;7.164;2023-05-24T11:41:40;46950.31;;;-140.95;27.87
38054;BME280;23859;50.672;7.164;2023-05-24T11:44:08;46982.53;;;-140.95;28.60
38054;BME280;23859;50.672;7.164;2023-05-24T11:46:35;46982.53;;;-140.95;28.63
38054;BME280;23859;50.672;7.164;2023-05-24T11:49:04;47004.72;;;-140.95;30.19
38054;BME280;23859;50.672;7.164;2023-05-24T11:51:32;46974.47;;;-140.95;30.53
38054;BME280;23859;50.672;7.164;2023-05-24T11:53:59;46984.56;;;-140.95;28.87
38054;BME280;23859;50.672;7.164;2023-05-24T11:56:28;46986.56;;;-140.95;29.21
38054;BME280;23859;50.672;7.164;2023-05-24T11:59:16;46934.19;;;-140.95;29.96
38054;BME280;23859;50.672;7.164;2023-05-24T12:01:43;47006.72;;;-140.95;30.57
38054;BME280;23859;50.672;7.164;2023-05-24T12:04:09;47014.78;;;-140.95;31.50
38054;BME280;23859;50.672;7.164;2023-05-24T12:06:38;47069.19;;;-140.95;32.16
38054;BME280;23859;50.672;7.164;2023-05-24T12:09:05;47101.41;;;-140.95;32.40
38054;BME280;23859;50.672;7.164;2023-05-24T12:11:45;47117.53;;;-140.95;35.58
38054;BME280;23859;50.672;7.164;2023-05-24T12:14:13;47159.84;;;-140.95;35.45
38054;BME280;23859;50.672;7.164;2023-05-24T12:16:41;47178.00;;;-140.95;36.80
38054;BME280;23859;50.672;7.164;2023-05-24T12:19:11;47192.09;;;-140.95;38.53
38054;BME280;23859;50.672;7.164;2023-05-24T12:21:40;47194.13;;;-140.95;39.15
38054;BME280;23859;50.672;7.164;2023-05-24T12:24:15;47200.16;;;-140.95;39.28
38054;BME280;23859;50.672;7.164;2023-05-24T12:26:47;47180.00;;;-140.95;38.84
38054;BME280;23859;50.672;7.164;2023-05-24T12:29:14;47208.22;;;-140.95;39.72
38054;BME280;23859;50.672;7.164;2023-05-24T12:31:41;47198.13;;;-140.95;39.33
38054;BME280;23859;50.672;7.164;2023-05-24T12:34:14;47208.22;;;-140.95;39.59
38054;BME280;23859;50.672;7.164;2023-05-24T12:36:41;47216.28;;;-140.95;40.27
38054;BME280;23859;50.672;7.164;2023-05-24T12:39:21;47149.78;;;-140.95;40.83
38054;BME280;23859;50.672;7.164;2023-05-24T12:41:54;47190.09;;;-140.95;39.79
38054;BME280;23859;50.672;7.164;2023-05-24T12:44:28;47212.25;;;-140.95;40.48
38054;BME280;23859;50.672;7.164;2023-05-24T12:46:56;47208.22;;;-140.95;39.30
38054;BME280;23859;50.672;7.164;2023-05-24T12:49:23;47200.16;;;-140.95;39.95
38054;BME280;23859;50.672;7.164;2023-05-24T12:51:51;47188.06;;;-140.95;40.90
38054;BME280;23859;50.672;7.164;2023-05-24T12:54:20;47200.16;;;-140.95;38.95
38054;BME280;23859;50.672;7.164;2023-05-24T12:56:47;47186.06;;;-140.95;39.34